Al Ahsa, Saudi Arabia
Current Conditions -  °F | °C
As of 3:00 AM on Tuesday 25 Nov 2014 (Local Time) from OEAH Reporting Station
Overcast Overcast  
Wind Chill: 68°   Ceiling: 10000
Heat Index: 68°   Visibility: 6mi
Dew Point: 64°   Wind: 12mph
Humidity: 88%   Direction: 30°NNE
Pressure: 29.88"   Gusts: NA
Location:  25.3°N, 49.48°E
Report Text: OEAH 250000Z 03010KT 9999 FEW050 OVC100 20/18 Q1012 NOSIG
Loading
Personal Weather Stations






























Interactive Weather Map New forecast layout! Learn more

10-Day Weather Forecast

Advertisements
Track Severe Weather on mobile